Time;durP1;ratioP1;P1;durP2;ratioP2;P2;SDS_P1;SDS_P2;PMS_P1;PMS_P2;Temp;Humidity;BMP_temperature;BMP_pressure;BME280_temperature;BME280_humidity;BME280_pressure;Samples;Min_cycle;Max_cycle;Signal;HPM_P1;HPM_P2
2022/02/09 00:00:20;;;;;;;18.30;9.70;;;;;;;0.52;78.46;99128.61;108850;1281;22503;-58
2022/02/09 00:03:04;;;;;;;17.20;8.50;;;;;;;0.52;78.58;99131.76;108701;1281;139143;-59
2022/02/09 00:05:46;;;;;;;17.50;7.50;;;;;;;0.52;78.40;99130.27;108787;1280;23251;-59
2022/02/09 00:08:15;;;;;;;16.70;7.00;;;;;;;0.52;78.59;99126.64;108680;1280;22415;-59
2022/02/09 00:10:46;;;;;;;21.30;8.80;;;;;;;0.52;78.49;99124.20;108673;1281;138060;-58
2022/02/09 00:13:47;;;;;;;32.70;12.60;;;;;;;0.53;78.66;99119.80;108781;1281;23665;-59
2022/02/09 00:19:02;;;;;;;28.80;10.60;;;;;;;0.55;78.47;99115.72;108757;1280;22629;-58
2022/02/09 00:58:51;;;;;;;15.70;7.90;;;;;;;0.54;78.85;99098.40;108632;1281;137779;-59
2022/02/09 01:02:49;;;;;;;12.30;6.20;;;;;;;0.61;79.75;99089.33;108375;1281;139071;-59
2022/02/09 01:38:53;;;;;;;17.30;6.70;;;;;;;0.63;81.94;99049.90;107978;1287;139257;-58
2022/02/09 01:42:37;;;;;;;13.90;5.70;;;;;;;0.64;82.15;99051.22;108116;1286;22591;-58
2022/02/09 01:55:31;;;;;;;20.80;7.50;;;;;;;0.65;82.94;99043.88;108394;1283;22530;-58
2022/02/09 01:57:59;;;;;;;16.00;7.30;;;;;;;0.65;82.90;99046.02;108333;1282;138053;-59
2022/02/09 02:00:27;;;;;;;12.40;6.90;;;;;;;0.64;83.02;99048.42;108392;1281;22551;-58
2022/02/09 02:02:58;;;;;;;15.40;7.60;;;;;;;0.63;83.09;99048.75;109046;1277;139485;-58
2022/02/09 02:05:26;;;;;;;15.00;7.10;;;;;;;0.62;83.08;99051.25;109100;1277;22527;-58
2022/02/09 02:07:58;;;;;;;14.60;7.60;;;;;;;0.60;83.49;99044.86;109091;1277;22487;-58
2022/02/09 02:11:19;;;;;;;15.10;7.10;;;;;;;0.59;83.52;99045.19;109001;1277;137855;-58
2022/02/09 02:13:52;;;;;;;16.80;6.40;;;;;;;0.59;83.33;99048.27;109032;1276;22476;-58
2022/02/09 02:16:42;;;;;;;12.90;6.50;;;;;;;0.58;83.56;99043.91;108986;1276;138947;-58
2022/02/09 02:20:00;;;;;;;13.40;6.40;;;;;;;0.59;83.74;99042.39;109116;1277;22482;-58
2022/02/09 02:27:41;;;;;;;12.00;6.20;;;;;;;0.61;83.88;99045.89;109009;1277;139167;-58
2022/02/09 02:47:16;;;;;;;16.50;6.60;;;;;;;0.71;84.42;99043.98;108376;1282;137865;-58
2022/02/09 03:12:13;;;;;;;21.00;7.10;;;;;;;0.76;84.79;99051.92;108476;1282;22442;-59
2022/02/09 03:17:15;;;;;;;17.60;8.50;;;;;;;0.81;85.18;99047.89;108425;1282;22733;-58
2022/02/09 03:22:21;;;;;;;13.40;7.90;;;;;;;0.83;85.18;99053.21;108899;1277;138917;-59
2022/02/09 03:44:21;;;;;;;13.00;6.20;;;;;;;0.80;85.38;99066.36;109143;1277;22402;-58
2022/02/09 03:52:43;;;;;;;12.60;6.20;;;;;;;0.82;85.82;99066.33;108976;1277;138090;-58
2022/02/09 03:57:45;;;;;;;11.80;6.30;;;;;;;0.82;86.24;99070.25;109003;1276;138879;-59
2022/02/09 04:00:18;;;;;;;13.10;6.40;;;;;;;0.83;86.22;99066.91;109111;1276;22637;-58
2022/02/09 04:02:50;;;;;;;10.90;6.10;;;;;;;0.79;85.99;99069.14;109151;1277;23280;-58
2022/02/09 04:05:19;;;;;;;12.10;7.10;;;;;;;0.82;86.21;99078.58;109012;1277;137680;-58
2022/02/09 04:07:47;;;;;;;11.50;6.80;;;;;;;0.82;86.20;99079.23;109117;1277;22435;-58
2022/02/09 04:10:27;;;;;;;12.30;7.00;;;;;;;0.81;86.47;99076.55;108975;1277;137776;-59
2022/02/09 04:16:06;;;;;;;12.70;6.50;;;;;;;0.87;86.47;99078.98;108850;1276;137294;-58
2022/02/09 04:49:01;;;;;;;10.30;6.00;;;;;;;0.94;87.21;99096.70;109051;1277;22556;-58
2022/02/09 04:51:42;;;;;;;16.70;6.60;;;;;;;0.94;87.38;99100.27;109011;1277;138722;-58
2022/02/09 04:56:49;;;;;;;14.30;8.20;;;;;;;0.99;87.16;99105.29;109096;1276;22412;-58
2022/02/09 05:18:59;;;;;;;11.60;7.20;;;;;;;0.98;87.70;99131.07;109048;1277;22429;-59
2022/02/09 05:26:42;;;;;;;9.70;7.30;;;;;;;1.03;88.16;99147.23;109129;1277;23198;-58
2022/02/09 05:29:10;;;;;;;10.20;6.30;;;;;;;1.03;88.39;99149.92;108933;1277;139094;-58
2022/02/09 05:31:38;;;;;;;12.20;5.50;;;;;;;1.07;88.49;99152.40;109085;1277;22482;-58
2022/02/09 05:34:08;;;;;;;10.10;6.20;;;;;;;1.10;88.42;99156.91;108977;1276;138315;-58
2022/02/09 05:36:39;;;;;;;12.40;7.20;;;;;;;1.13;88.62;99160.95;109084;1276;22598;-58
2022/02/09 05:39:07;;;;;;;13.80;6.30;;;;;;;1.15;88.69;99159.43;109043;1277;22567;-55
2022/02/09 05:41:41;;;;;;;9.90;6.60;;;;;;;1.17;88.89;99165.11;108970;1277;138700;-58
2022/02/09 05:44:11;;;;;;;9.80;6.30;;;;;;;1.17;88.59;99161.10;109105;1277;22515;-58
2022/02/09 05:49:45;;;;;;;11.00;6.10;;;;;;;1.22;88.90;99176.47;109120;1277;22478;-59
2022/02/09 05:52:27;;;;;;;8.70;6.20;;;;;;;1.25;88.96;99173.09;109041;1276;138989;-58
2022/02/09 05:55:23;;;;;;;9.40;5.70;;;;;;;1.25;89.01;99173.92;109014;1277;23670;-59
2022/02/09 05:57:55;;;;;;;9.70;5.70;;;;;;;1.31;88.83;99184.88;108950;1277;137920;-58
2022/02/09 06:00:22;;;;;;;11.20;6.20;;;;;;;1.35;89.06;99186.58;109118;1277;23573;-59
2022/02/09 06:02:51;;;;;;;9.10;5.70;;;;;;;1.37;88.94;99188.20;109018;1277;22481;-59
2022/02/09 06:05:19;;;;;;;12.60;7.00;;;;;;;1.40;89.18;99192.11;108876;1276;138216;-59
2022/02/09 06:07:52;;;;;;;8.80;5.50;;;;;;;1.40;89.05;99188.12;109001;1276;22541;-59
2022/02/09 06:10:26;;;;;;;7.90;5.40;;;;;;;1.46;88.93;99192.19;108955;1276;138658;-58
2022/02/09 06:13:11;;;;;;;8.20;5.30;;;;;;;1.46;88.94;99193.97;109001;1277;22499;-58
2022/02/09 06:21:13;;;;;;;10.90;5.30;;;;;;;1.55;89.11;99202.86;108971;1277;138249;-58
2022/02/09 06:23:42;;;;;;;10.80;6.00;;;;;;;1.56;89.13;99206.08;109043;1277;23484;-58
2022/02/09 06:26:10;;;;;;;10.80;5.50;;;;;;;1.59;89.08;99210.20;109054;1276;23268;-58
2022/02/09 06:28:38;;;;;;;8.90;5.40;;;;;;;1.61;89.04;99213.08;109000;1277;138002;-59
2022/02/09 06:31:07;;;;;;;9.80;6.20;;;;;;;1.63;89.24;99214.94;109120;1277;22589;-59
2022/02/09 06:33:35;;;;;;;10.40;5.40;;;;;;;1.65;89.21;99217.13;109019;1277;140014;-59
2022/02/09 06:36:07;;;;;;;9.40;5.20;;;;;;;1.68;89.01;99217.55;109129;1276;22404;-59
2022/02/09 06:38:39;;;;;;;10.90;5.40;;;;;;;1.69;89.02;99219.70;109076;1276;22482;-59
2022/02/09 06:41:07;;;;;;;10.90;5.50;;;;;;;1.74;88.97;99225.67;108895;1277;137963;-58
2022/02/09 06:43:36;;;;;;;8.50;5.50;;;;;;;1.76;89.08;99232.48;109155;1277;22481;-59
2022/02/09 06:46:04;;;;;;;12.60;5.50;;;;;;;1.79;88.93;99239.06;109000;1276;137726;-58
2022/02/09 06:48:33;;;;;;;9.50;5.40;;;;;;;1.80;88.92;99236.98;109125;1277;22486;-58
2022/02/09 06:51:13;;;;;;;19.60;6.30;;;;;;;1.84;88.85;99239.47;109090;1277;22518;-58
2022/02/09 06:54:06;;;;;;;10.00;5.80;;;;;;;1.87;88.89;99250.91;109000;1277;137765;-59
2022/02/09 06:56:57;;;;;;;8.60;5.50;;;;;;;1.89;88.57;99256.89;109107;1277;22427;-58
2022/02/09 06:59:28;;;;;;;10.40;6.90;;;;;;;1.91;88.85;99262.30;108976;1277;137714;-58
2022/02/09 07:01:59;;;;;;;11.90;7.10;;;;;;;1.93;88.72;99265.23;109121;1276;22515;-59
2022/02/09 07:04:28;;;;;;;18.30;7.30;;;;;;;1.97;88.72;99267.48;109028;1277;140118;-59
2022/02/09 07:06:57;;;;;;;14.10;5.80;;;;;;;2.00;88.58;99267.27;109077;1276;23290;-58
2022/02/09 07:09:27;;;;;;;15.30;6.00;;;;;;;2.02;88.57;99274.23;108976;1276;139467;-58
2022/02/09 07:11:55;;;;;;;9.70;6.10;;;;;;;2.04;88.45;99275.17;109170;1277;23155;-58
2022/02/09 07:14:29;;;;;;;12.10;5.70;;;;;;;2.07;88.36;99277.13;109109;1277;22464;-59
2022/02/09 07:16:58;;;;;;;10.50;5.70;;;;;;;2.10;88.42;99283.36;108987;1277;137876;-59
2022/02/09 07:19:27;;;;;;;13.10;6.00;;;;;;;2.12;88.15;99282.13;109104;1277;23359;-59
2022/02/09 07:21:55;;;;;;;15.20;7.20;;;;;;;2.15;88.16;99283.29;108987;1276;138707;-59
2022/02/09 07:24:23;;;;;;;15.60;8.40;;;;;;;2.17;87.98;99285.86;109072;1277;23327;-59
2022/02/09 07:27:23;;;;;;;11.90;6.70;;;;;;;2.18;87.96;99285.90;109108;1277;22531;-59
2022/02/09 07:29:39;;;;;;;10.60;6.80;;;;;;;2.19;88.04;99287.64;108981;1277;138592;-59
2022/02/09 07:32:07;;;;;;;11.50;4.80;;;;;;;2.22;87.97;99287.14;109133;1278;22471;-59
2022/02/09 07:34:35;;;;;;;9.40;6.30;;;;;;;2.22;87.94;99284.04;108969;1277;139143;-59
2022/02/09 07:37:04;;;;;;;12.70;5.60;;;;;;;2.24;87.85;99286.73;109182;1277;22443;-58
2022/02/09 07:39:33;;;;;;;10.30;5.30;;;;;;;2.25;87.69;99288.17;109040;1276;140126;-59
2022/02/09 07:42:09;;;;;;;8.80;4.70;;;;;;;2.27;87.60;99286.98;109075;1276;22952;-60
2022/02/09 07:44:59;;;;;;;8.20;5.10;;;;;;;2.30;87.78;99291.65;109101;1277;22549;-59
2022/02/09 07:50:47;;;;;;;8.50;4.60;;;;;;;2.31;87.49;99297.61;109126;1276;22447;-58
2022/02/09 07:56:21;;;;;;;12.20;5.20;;;;;;;2.41;87.20;99300.95;101816;1309;545448;-57
2022/02/09 07:58:49;;;;;;;9.80;5.00;;;;;;;2.39;87.16;99298.77;103702;1286;137563;-57
2022/02/09 08:01:17;;;;;;;8.80;5.10;;;;;;;2.42;87.01;99301.38;103558;1289;22598;-57
2022/02/09 08:03:45;;;;;;;12.10;5.20;;;;;;;2.42;86.82;99306.42;108109;1286;137517;-57
2022/02/09 08:06:13;;;;;;;12.00;4.80;;;;;;;2.42;86.80;99309.65;108261;1286;22530;-56
2022/02/09 08:08:43;;;;;;;13.60;6.20;;;;;;;2.42;86.78;99310.64;108145;1286;23304;-58
2022/02/09 08:11:22;;;;;;;11.30;6.10;;;;;;;2.43;86.85;99318.63;108175;1284;137121;-57
2022/02/09 08:27:45;;;;;;;10.80;5.40;;;;;;;2.54;86.07;99326.29;109030;1277;138438;-58
2022/02/09 08:32:53;;;;;;;11.60;5.30;;;;;;;2.62;85.93;99331.38;109124;1277;22302;-57
2022/02/09 08:35:21;;;;;;;12.10;5.20;;;;;;;2.66;85.70;99336.63;108938;1277;139719;-57
2022/02/09 08:37:52;;;;;;;15.90;6.00;;;;;;;2.69;85.53;99336.76;109147;1276;22467;-57
2022/02/09 08:40:22;;;;;;;10.30;4.00;;;;;;;2.73;85.43;99341.38;109013;1277;137879;-57
2022/02/09 08:42:58;;;;;;;11.90;5.10;;;;;;;2.77;85.18;99349.42;109101;1277;22447;-57
2022/02/09 08:45:26;;;;;;;10.20;3.90;;;;;;;2.79;84.94;99352.64;108981;1277;137569;-57
2022/02/09 08:47:57;;;;;;;9.40;4.30;;;;;;;2.82;84.79;99356.08;109091;1277;22530;-57
2022/02/09 08:50:25;;;;;;;15.30;5.70;;;;;;;2.81;84.39;99358.11;109121;1277;23146;-57
2022/02/09 08:52:53;;;;;;;14.30;5.40;;;;;;;2.83;84.29;99359.88;108947;1277;138783;-57
2022/02/09 08:55:21;;;;;;;7.50;4.00;;;;;;;2.87;84.02;99367.20;109036;1277;23745;-57
2022/02/09 08:57:50;;;;;;;8.70;4.40;;;;;;;2.89;83.67;99368.75;109024;1277;138529;-57
2022/02/09 09:00:25;;;;;;;11.40;4.40;;;;;;;2.90;83.52;99368.62;109061;1277;22512;-57
2022/02/09 09:03:13;;;;;;;10.20;3.70;;;;;;;2.92;83.40;99369.61;109091;1277;23700;-57
2022/02/09 09:05:47;;;;;;;12.40;3.70;;;;;;;2.94;83.33;99376.15;108991;1277;138307;-57
2022/02/09 09:11:21;;;;;;;14.00;5.00;;;;;;;3.00;82.57;99377.42;108946;1277;138703;-57
2022/02/09 10:02:55;;;;;;;9.40;3.00;;;;;;;3.24;77.94;99391.81;108366;1284;22481;-59
2022/02/09 10:32:01;;;;;;;9.40;2.80;;;;;;;3.20;76.20;99404.63;108867;1280;22449;-59
2022/02/09 10:34:28;;;;;;;9.30;3.10;;;;;;;3.21;76.07;99408.14;108884;1280;139157;-58
2022/02/09 10:37:02;;;;;;;11.60;3.00;;;;;;;3.23;75.56;99408.17;108991;1279;22444;-58
2022/02/09 10:40:01;;;;;;;9.10;3.10;;;;;;;3.26;75.37;99412.23;108999;1280;22550;-58
2022/02/09 10:42:46;;;;;;;14.50;4.80;;;;;;;3.31;75.08;99406.78;108960;1277;138268;-58
2022/02/09 10:45:36;;;;;;;10.20;4.00;;;;;;;3.37;75.57;99408.04;109092;1277;22489;-58
2022/02/09 10:48:05;;;;;;;9.90;2.60;;;;;;;3.46;75.32;99409.11;108986;1277;137903;-59
2022/02/09 10:50:36;;;;;;;9.30;2.90;;;;;;;3.55;75.08;99408.28;109038;1277;22447;-59
2022/02/09 10:53:05;;;;;;;9.80;2.70;;;;;;;3.59;74.92;99403.89;108861;1277;137906;-59
2022/02/09 10:55:39;;;;;;;10.90;4.50;;;;;;;3.65;74.08;99410.70;108836;1278;22536;-59
2022/02/09 10:58:15;;;;;;;10.10;4.10;;;;;;;3.67;74.16;99417.16;108938;1277;138668;-58
2022/02/09 11:00:44;;;;;;;8.90;3.00;;;;;;;3.70;73.73;99417.33;109031;1277;22446;-58
2022/02/09 11:03:23;;;;;;;11.10;5.60;;;;;;;3.71;73.31;99418.23;108954;1277;25290;-59
2022/02/09 11:05:55;;;;;;;21.80;7.20;;;;;;;3.76;72.76;99422.77;108876;1277;137071;-59
2022/02/09 11:08:23;;;;;;;24.50;10.20;;;;;;;3.79;72.69;99420.77;109055;1277;22413;-59
2022/02/09 11:10:51;;;;;;;27.30;11.50;;;;;;;3.83;72.54;99426.23;108851;1277;137593;-59
2022/02/09 11:13:19;;;;;;;19.80;8.90;;;;;;;3.85;72.27;99427.30;108905;1278;22472;-59
2022/02/09 11:15:48;;;;;;;15.20;6.90;;;;;;;3.87;72.16;99433.47;109017;1277;22451;-59
2022/02/09 11:18:19;;;;;;;11.90;4.70;;;;;;;3.90;71.90;99429.30;108759;1277;137595;-59
2022/02/09 11:21:03;;;;;;;11.00;3.30;;;;;;;3.96;72.16;99427.11;108802;1277;22508;-59
2022/02/09 11:23:48;;;;;;;8.90;3.20;;;;;;;4.05;71.95;99429.02;108909;1277;137888;-58
2022/02/09 11:27:25;;;;;;;11.60;2.80;;;;;;;4.14;71.43;99436.44;109015;1277;22415;-59
2022/02/09 11:37:41;;;;;;;11.20;3.00;;;;;;;4.38;70.16;99441.52;109013;1277;22493;-59
2022/02/09 11:43:34;;;;;;;8.30;3.00;;;;;;;4.46;69.15;99450.39;108972;1277;23476;-59
2022/02/09 11:46:33;;;;;;;10.60;3.20;;;;;;;4.45;69.04;99447.28;108992;1277;22448;-59
2022/02/09 11:49:22;;;;;;;7.30;3.10;;;;;;;4.45;69.49;99451.52;109016;1277;22544;-59
2022/02/09 12:11:38;;;;;;;8.40;2.50;;;;;;;4.24;68.03;99462.20;108536;1277;140769;-60
2022/02/09 12:19:32;;;;;;;10.20;3.70;;;;;;;4.28;67.67;99463.59;108987;1277;22450;-60
2022/02/09 12:24:34;;;;;;;14.00;4.00;;;;;;;4.32;67.25;99471.21;108774;1279;137099;-59
2022/02/09 12:27:06;;;;;;;13.60;4.80;;;;;;;4.32;67.61;99468.94;109016;1277;23124;-60
2022/02/09 12:29:37;;;;;;;14.90;4.10;;;;;;;4.34;67.72;99472.09;108890;1277;137324;-60
2022/02/09 12:32:14;;;;;;;9.00;3.10;;;;;;;4.41;67.66;99478.30;108912;1277;23601;-59
2022/02/09 12:34:45;;;;;;;9.80;3.60;;;;;;;4.44;67.69;99477.75;108940;1277;137248;-59
2022/02/09 12:37:14;;;;;;;8.90;3.00;;;;;;;4.49;67.12;99482.55;109024;1277;22513;-59
2022/02/09 12:39:58;;;;;;;6.40;2.70;;;;;;;4.49;66.65;99481.55;109055;1277;22521;-58
2022/02/09 12:42:30;;;;;;;7.60;2.30;;;;;;;4.52;66.62;99484.69;108937;1277;138415;-58
2022/02/09 12:44:59;;;;;;;6.20;2.10;;;;;;;4.53;65.77;99487.17;108978;1277;22467;-57
2022/02/09 12:47:35;;;;;;;13.50;3.40;;;;;;;4.50;65.55;99487.40;108902;1277;137673;-58
2022/02/09 12:50:10;;;;;;;7.30;2.10;;;;;;;4.49;65.59;99493.34;109031;1277;22453;-58
2022/02/09 12:52:39;;;;;;;10.40;2.40;;;;;;;4.49;65.48;99494.91;108882;1277;138761;-58
2022/02/09 12:55:08;;;;;;;8.90;2.90;;;;;;;4.48;65.36;99497.91;109003;1277;22466;-58
2022/02/09 12:57:38;;;;;;;11.00;2.70;;;;;;;4.48;65.14;99500.14;108934;1277;22445;-58
2022/02/09 13:00:20;;;;;;;8.70;3.30;;;;;;;4.47;64.80;99503.44;108880;1277;139444;-58
2022/02/09 13:02:48;;;;;;;7.40;2.20;;;;;;;4.43;64.92;99507.14;108968;1277;23243;-58
2022/02/09 13:05:16;;;;;;;6.50;2.40;;;;;;;4.40;64.70;99509.35;108884;1278;137638;-58
2022/02/09 13:07:58;;;;;;;8.70;2.60;;;;;;;4.37;65.02;99510.86;109017;1278;22506;-58
2022/02/09 13:10:33;;;;;;;10.90;2.60;;;;;;;4.37;65.53;99513.64;108936;1278;22571;-58
2022/02/09 13:13:07;;;;;;;5.90;2.30;;;;;;;4.35;65.50;99510.21;108880;1278;138706;-58
2022/02/09 13:15:49;;;;;;;8.90;2.20;;;;;;;4.41;65.06;99520.67;108869;1278;23739;-58
2022/02/09 14:15:31;;;;;;;10.60;3.80;;;;;;;4.10;65.95;99591.51;109031;1277;22463;-59
2022/02/09 14:32:54;;;;;;;5.60;2.80;;;;;;;3.95;66.47;99610.94;108428;1283;22591;-60
2022/02/09 14:53:53;;;;;;;10.20;2.80;;;;;;;3.60;66.96;99628.28;108308;1283;138383;-57
2022/02/09 14:56:31;;;;;;;12.00;3.30;;;;;;;3.53;66.79;99636.38;108424;1283;23777;-57
2022/02/09 14:59:00;;;;;;;8.60;2.70;;;;;;;3.47;66.83;99639.57;108389;1283;22490;-57
2022/02/09 15:01:57;;;;;;;8.30;2.70;;;;;;;3.44;66.94;99647.17;108720;1277;137470;-57
2022/02/09 15:22:33;;;;;;;13.70;3.70;;;;;;;3.29;67.66;99670.67;109041;1277;22565;-57
2022/02/09 15:25:09;;;;;;;9.00;3.20;;;;;;;3.24;67.59;99675.22;108840;1277;137821;-58
2022/02/09 15:27:39;;;;;;;11.70;4.70;;;;;;;3.19;67.69;99673.13;109022;1277;22471;-57
2022/02/09 15:30:07;;;;;;;18.20;7.70;;;;;;;3.15;67.97;99672.77;108914;1277;138918;-57
2022/02/09 15:32:43;;;;;;;15.60;7.80;;;;;;;3.12;67.97;99677.91;109031;1277;22573;-57
2022/02/09 15:35:31;;;;;;;16.50;6.10;;;;;;;3.07;68.35;99677.44;108966;1277;139280;-57
2022/02/09 15:38:09;;;;;;;16.90;6.10;;;;;;;3.05;68.30;99684.80;109037;1277;22596;-57
2022/02/09 15:40:59;;;;;;;10.30;4.70;;;;;;;3.03;68.51;99685.31;106202;1278;25563;-58
2022/02/09 15:58:18;;;;;;;17.00;7.80;;;;;;;2.89;69.39;99715.00;107958;1287;22495;-56
2022/02/09 16:22:55;;;;;;;23.80;8.50;;;;;;;2.67;70.51;99746.73;107649;1290;22590;-57
2022/02/09 16:36:59;;;;;;;18.10;7.90;;;;;;;2.59;71.12;99755.36;108252;1284;138407;-57
2022/02/09 16:44:42;;;;;;;21.20;8.90;;;;;;;2.54;71.52;99762.66;104028;1283;24481;-57
2022/02/09 16:48:01;;;;;;;22.70;9.60;;;;;;;2.52;71.39;99766.98;104232;1277;138309;-58
2022/02/09 16:50:13;;;;;;;19.40;8.20;;;;;;;2.49;71.64;99768.41;104460;1277;25265;-58
2022/02/09 16:52:51;;;;;;;25.90;8.40;;;;;;;2.46;71.61;99770.27;108981;1277;22482;-56
2022/02/09 17:20:24;;;;;;;21.60;9.20;;;;;;;2.55;72.59;99786.20;108192;1284;22545;-57
2022/02/09 17:22:52;;;;;;;21.00;8.60;;;;;;;2.55;72.42;99783.89;108257;1284;23024;-57
2022/02/09 17:25:20;;;;;;;28.40;8.90;;;;;;;2.55;72.36;99787.95;108065;1284;137444;-57
2022/02/09 17:27:48;;;;;;;21.60;9.20;;;;;;;2.55;72.45;99784.89;108206;1284;22491;-57
2022/02/09 17:35:29;;;;;;;19.10;8.30;;;;;;;2.60;72.40;99780.63;108078;1284;139141;-57
2022/02/09 17:56:53;;;;;;;16.40;6.10;;;;;;;2.70;71.37;99793.35;109033;1277;22406;-58
2022/02/09 17:59:24;;;;;;;17.60;6.20;;;;;;;2.69;71.26;99794.88;108963;1277;138362;-59
2022/02/09 18:01:52;;;;;;;9.80;5.10;;;;;;;2.69;71.08;99794.55;109055;1277;22442;-59
2022/02/09 18:04:22;;;;;;;15.20;5.50;;;;;;;2.69;70.81;99797.64;109040;1277;22452;-59
2022/02/09 18:07:02;;;;;;;13.80;4.30;;;;;;;2.68;70.74;99793.92;108974;1277;139618;-59
2022/02/09 18:09:41;;;;;;;9.90;4.50;;;;;;;2.68;70.49;99793.38;109086;1277;22519;-60
2022/02/09 18:12:19;;;;;;;12.60;5.30;;;;;;;2.69;70.55;99793.30;108928;1277;137670;-60
2022/02/09 18:31:39;;;;;;;18.80;6.40;;;;;;;2.66;70.19;99792.25;108949;1277;137245;-60
2022/02/09 18:47:41;;;;;;;39.10;20.00;;;;;;;2.48;70.25;99792.53;109044;1277;22453;-61
2022/02/09 18:59:23;;;;;;;31.00;14.80;;;;;;;2.38;70.57;99799.30;109028;1277;22537;-60
2022/02/09 19:04:26;;;;;;;24.20;9.20;;;;;;;2.28;70.83;99799.01;109004;1277;22436;-60
2022/02/09 19:17:45;;;;;;;42.10;21.10;;;;;;;2.11;70.98;99785.42;109038;1277;22493;-60
2022/02/09 19:31:18;;;;;;;35.90;18.30;;;;;;;1.86;70.82;99798.71;108955;1277;138639;-61
2022/02/09 19:47:19;;;;;;;36.00;14.80;;;;;;;1.16;72.09;99818.30;109092;1277;22515;-58
2022/02/09 19:50:08;;;;;;;32.70;13.10;;;;;;;1.14;72.50;99818.92;108941;1277;138061;-58
2022/02/09 19:52:54;;;;;;;32.20;12.00;;;;;;;1.13;72.44;99816.35;108969;1277;23248;-58
2022/02/09 19:55:36;;;;;;;23.00;11.20;;;;;;;1.13;72.66;99816.71;108834;1277;138675;-58
2022/02/09 19:58:06;;;;;;;22.40;9.90;;;;;;;1.13;72.83;99819.90;108949;1277;22440;-58
2022/02/09 20:00:36;;;;;;;18.40;9.30;;;;;;;1.14;73.00;99816.69;108895;1277;139394;-58
2022/02/09 20:03:07;;;;;;;20.60;9.10;;;;;;;1.12;72.98;99815.95;109087;1277;22456;-58
2022/02/09 20:05:35;;;;;;;21.30;9.50;;;;;;;1.14;73.12;99817.14;109082;1277;22462;-58
2022/02/09 20:08:05;;;;;;;21.10;10.00;;;;;;;1.14;73.41;99809.21;108982;1277;137355;-58
2022/02/09 20:13:07;;;;;;;25.60;10.20;;;;;;;1.19;73.65;99802.15;101486;1309;545140;-58
2022/02/09 20:15:36;;;;;;;28.00;12.50;;;;;;;1.19;73.79;99795.17;108012;1287;23240;-58
2022/02/09 20:18:04;;;;;;;32.70;11.60;;;;;;;1.23;74.11;99794.52;108003;1287;137522;-58
2022/02/09 20:20:35;;;;;;;26.90;10.80;;;;;;;1.26;73.80;99790.72;108099;1287;22436;-58
2022/02/09 20:23:05;;;;;;;26.30;10.40;;;;;;;1.30;74.16;99796.08;108138;1287;22471;-58
2022/02/09 20:25:33;;;;;;;27.00;9.30;;;;;;;1.34;74.24;99785.58;107929;1287;137860;-58
2022/02/09 20:28:01;;;;;;;20.40;8.90;;;;;;;1.38;74.21;99785.41;108376;1284;22478;-58
2022/02/09 20:30:32;;;;;;;15.80;6.90;;;;;;;1.40;74.47;99772.71;108382;1284;138438;-58
2022/02/09 20:33:04;;;;;;;19.70;7.40;;;;;;;1.49;74.48;99781.09;108234;1284;22531;-58
2022/02/09 20:35:33;;;;;;;15.40;6.80;;;;;;;1.52;74.65;99780.52;108258;1284;22587;-58
2022/02/09 20:38:01;;;;;;;17.40;7.70;;;;;;;1.59;74.55;99787.41;108408;1283;137769;-58
2022/02/09 20:40:47;;;;;;;19.50;7.30;;;;;;;1.63;74.63;99784.39;108423;1284;22616;-61
2022/02/09 20:43:17;;;;;;;16.70;7.80;;;;;;;1.67;74.55;99777.58;108433;1284;138634;-60
2022/02/09 20:45:50;;;;;;;14.00;6.40;;;;;;;1.71;74.48;99775.34;108421;1284;22498;-61
2022/02/09 20:48:23;;;;;;;14.20;5.30;;;;;;;1.73;74.34;99769.14;108332;1284;137971;-61
2022/02/09 20:50:52;;;;;;;15.80;6.80;;;;;;;1.75;74.37;99770.69;108445;1284;22503;-61
2022/02/09 20:53:21;;;;;;;16.40;6.30;;;;;;;1.77;74.35;99776.04;108243;1284;22480;-61
2022/02/09 20:55:49;;;;;;;22.70;9.00;;;;;;;1.78;74.39;99772.66;108345;1284;137500;-61
2022/02/09 20:58:17;;;;;;;23.40;7.90;;;;;;;1.80;74.27;99768.70;108465;1284;22618;-62
2022/02/09 21:01:02;;;;;;;21.50;8.40;;;;;;;1.81;74.39;99769.66;108349;1284;138065;-61
2022/02/09 21:23:05;;;;;;;16.70;7.50;;;;;;;1.90;74.39;99774.48;108101;1286;22516;-61
2022/02/09 21:26:02;;;;;;;17.20;7.70;;;;;;;1.89;74.45;99779.63;108025;1286;137483;-62
2022/02/09 21:57:19;;;;;;;21.60;10.10;;;;;;;1.62;75.01;99760.25;108503;1282;22377;-62
2022/02/09 22:00:17;;;;;;;17.70;9.00;;;;;;;1.61;75.11;99764.95;108473;1284;22452;-62
2022/02/09 22:22:40;;;;;;;23.90;11.10;;;;;;;1.63;76.65;99744.20;108161;1286;22461;-62
2022/02/09 22:27:51;;;;;;;23.20;9.20;;;;;;;1.68;76.93;99756.42;108124;1286;22477;-60
2022/02/09 22:54:48;;;;;;;16.10;7.70;;;;;;;1.88;78.26;99734.36;104250;1284;139141;-59
2022/02/09 22:57:19;;;;;;;21.40;8.20;;;;;;;1.88;78.43;99731.64;104352;1283;22739;-61
2022/02/09 23:00:02;;;;;;;17.30;6.90;;;;;;;1.89;78.71;99731.89;108643;1282;22473;-61
2022/02/09 23:02:38;;;;;;;17.50;8.20;;;;;;;1.91;78.98;99731.25;108614;1281;139387;-61
2022/02/09 23:08:10;;;;;;;18.20;8.90;;;;;;;1.95;79.33;99724.80;108604;1282;138199;-61
2022/02/09 23:16:27;;;;;;;12.60;6.90;;;;;;;2.02;79.69;99712.23;107926;1287;22487;-61
